Time;durP1;ratioP1;P1;durP2;ratioP2;P2;SDS_P1;SDS_P2;PMS_P1;PMS_P2;Temp;Humidity;BMP_temperature;BMP_pressure;BME280_temperature;BME280_humidity;BME280_pressure;Samples;Min_cycle;Max_cycle;Signal;HPM_P1;HPM_P2
2022/11/14 00:02:16;;;;;;;13.10;11.83;;;;;;;3.51;100.00;101427.22;4954470;28;20030;-64
2022/11/14 00:04:45;;;;;;;13.80;12.27;;;;;;;3.52;100.00;101430.69;4951320;28;20035;-64
2022/11/14 00:07:11;;;;;;;13.03;11.63;;;;;;;3.49;100.00;101426.22;4949176;28;20390;-64
2022/11/14 00:09:37;;;;;;;13.47;12.07;;;;;;;3.48;100.00;101425.34;4949448;28;20039;-63
2022/11/14 00:12:03;;;;;;;13.87;12.37;;;;;;;3.48;100.00;101424.44;4953633;28;20038;-63
2022/11/14 00:14:28;;;;;;;12.43;11.13;;;;;;;3.46;100.00;101426.00;4949243;28;20418;-63
2022/11/14 00:16:53;;;;;;;13.90;12.50;;;;;;;3.44;100.00;101412.19;4949562;28;20121;-64
2022/11/14 00:19:19;;;;;;;12.10;10.93;;;;;;;3.44;100.00;101412.19;4949364;28;20027;-63
2022/11/14 00:21:44;;;;;;;11.37;10.27;;;;;;;3.43;100.00;101416.44;4961582;28;20042;-64
2022/11/14 00:24:09;;;;;;;12.87;11.67;;;;;;;3.40;100.00;101412.78;4949164;28;20139;-64
2022/11/14 00:26:35;;;;;;;13.17;11.77;;;;;;;3.38;100.00;101409.22;4961689;28;20023;-63
2022/11/14 00:29:00;;;;;;;12.83;11.43;;;;;;;3.38;100.00;101409.22;4949304;28;20027;-64
2022/11/14 00:31:25;;;;;;;12.73;10.97;;;;;;;3.38;100.00;101411.78;4949443;28;20468;-63
2022/11/14 00:33:50;;;;;;;12.00;10.80;;;;;;;3.33;100.00;101399.53;4949719;28;20027;-64
2022/11/14 00:36:16;;;;;;;12.87;11.57;;;;;;;3.30;100.00;101407.00;4950011;28;20479;-64
2022/11/14 00:38:41;;;;;;;12.07;10.93;;;;;;;3.31;100.00;101403.66;4949095;28;20035;-64
2022/11/14 00:41:06;;;;;;;11.93;10.77;;;;;;;3.33;100.00;101399.53;4959119;28;20496;-64
2022/11/14 00:43:32;;;;;;;11.47;10.40;;;;;;;3.36;100.00;101392.03;4949251;28;20542;-64
2022/11/14 00:45:57;;;;;;;13.17;11.20;;;;;;;3.37;100.00;101395.50;4948734;28;20370;-64
2022/11/14 00:48:22;;;;;;;12.80;10.67;;;;;;;3.40;100.00;101397.41;4948899;28;20065;-64
2022/11/14 00:50:48;;;;;;;14.00;11.03;;;;;;;3.40;100.00;101392.28;4952153;28;20031;-64
2022/11/14 00:53:13;;;;;;;12.50;10.03;;;;;;;3.41;100.00;101391.50;4980485;28;20377;-64
2022/11/14 00:55:40;;;;;;;11.93;10.73;;;;;;;3.42;100.00;101394.16;4956134;28;20027;-63
2022/11/14 00:58:05;;;;;;;10.83;9.83;;;;;;;3.42;100.00;101385.59;4949209;28;20118;-64
2022/11/14 01:00:30;;;;;;;12.03;9.87;;;;;;;3.43;100.00;101382.25;4949088;28;20531;-63
2022/11/14 01:02:57;;;;;;;10.67;9.63;;;;;;;3.42;100.00;101377.91;4948970;28;20027;-63
2022/11/14 01:05:23;;;;;;;11.80;9.77;;;;;;;3.43;100.00;101375.44;4959546;28;20031;-64
2022/11/14 01:07:48;;;;;;;10.90;9.80;;;;;;;3.43;100.00;101364.31;4966226;28;20035;-64
2022/11/14 01:10:15;;;;;;;13.03;9.57;;;;;;;3.42;100.00;101376.22;4956599;28;20087;-63
2022/11/14 01:12:40;;;;;;;9.70;8.80;;;;;;;3.42;100.00;101370.22;4948873;28;20042;-64
2022/11/14 01:15:06;;;;;;;10.27;8.63;;;;;;;3.40;100.00;101359.84;4960509;28;20031;-64
2022/11/14 01:17:31;;;;;;;9.97;8.97;;;;;;;3.41;100.00;101348.81;4958016;28;20034;-64
2022/11/14 01:19:57;;;;;;;9.53;8.53;;;;;;;3.42;100.00;101350.59;4954519;28;20050;-64
2022/11/14 01:22:22;;;;;;;10.07;8.77;;;;;;;3.43;100.00;101342.13;4949564;28;20721;-63
2022/11/14 01:24:47;;;;;;;9.33;8.27;;;;;;;3.44;100.00;101341.34;4949371;28;20035;-63
2022/11/14 01:27:12;;;;;;;9.30;8.40;;;;;;;3.42;100.00;101336.91;4949681;28;20066;-63
2022/11/14 01:29:38;;;;;;;10.93;9.33;;;;;;;3.42;100.00;101329.22;4949063;28;20031;-63
2022/11/14 01:32:03;;;;;;;9.87;8.40;;;;;;;3.41;100.00;101335.13;4949402;28;20070;-63
2022/11/14 01:34:28;;;;;;;9.47;7.57;;;;;;;3.37;100.00;101334.00;4950077;28;20038;-63
2022/11/14 01:36:54;;;;;;;9.67;8.10;;;;;;;3.36;100.00;101322.88;4961336;28;20039;-64
2022/11/14 01:39:19;;;;;;;8.77;7.90;;;;;;;3.36;100.00;101332.25;4949491;28;20081;-64
2022/11/14 01:41:45;;;;;;;9.07;8.10;;;;;;;3.32;100.00;101326.03;4949442;28;20404;-63
2022/11/14 01:44:13;;;;;;;9.07;8.23;;;;;;;3.27;100.00;101324.81;4949338;28;20042;-63
2022/11/14 01:46:42;;;;;;;9.60;8.60;;;;;;;3.22;100.00;101327.03;4949409;28;20053;-64
2022/11/14 01:49:16;;;;;;;9.60;8.60;;;;;;;3.20;100.00;101325.16;4973413;28;20046;-63
2022/11/14 01:51:45;;;;;;;9.27;8.37;;;;;;;3.19;100.00;101325.94;4954182;28;20775;-63
2022/11/14 01:54:26;;;;;;;8.87;7.97;;;;;;;3.15;100.00;101321.41;4951533;28;20467;-64
2022/11/14 01:56:56;;;;;;;9.50;7.88;;;;;;;3.14;100.00;101317.03;4952698;28;20031;-63
2022/11/14 01:59:28;;;;;;;13.63;8.27;;;;;;;3.15;100.00;101321.41;4952471;28;20042;-64
2022/11/14 02:01:56;;;;;;;8.77;7.87;;;;;;;3.16;100.00;101318.03;4952607;28;20031;-63
2022/11/14 02:04:25;;;;;;;9.13;7.63;;;;;;;3.18;100.00;101316.47;4956244;28;20034;-64
2022/11/14 02:06:56;;;;;;;9.10;7.73;;;;;;;3.17;100.00;101314.69;4970742;28;20058;-63
2022/11/14 02:09:22;;;;;;;8.65;7.75;;;;;;;3.14;100.00;101315.38;4963317;28;20023;-63
2022/11/14 02:11:48;;;;;;;8.87;7.97;;;;;;;3.11;100.00;101315.16;4956741;28;20365;-63
2022/11/14 02:14:14;;;;;;;8.47;7.63;;;;;;;3.08;100.00;101309.81;4956631;28;20090;-63
2022/11/14 02:16:40;;;;;;;8.80;7.87;;;;;;;3.05;100.00;101314.72;4952312;28;20035;-63
2022/11/14 02:19:06;;;;;;;8.77;7.87;;;;;;;3.01;100.00;101313.63;4952361;28;20449;-63
2022/11/14 02:21:31;;;;;;;9.17;8.27;;;;;;;2.97;100.00;101294.59;4951545;28;20110;-64
2022/11/14 02:23:57;;;;;;;8.60;7.53;;;;;;;2.94;100.00;101299.50;4952337;28;20070;-63
2022/11/14 02:26:22;;;;;;;8.70;7.80;;;;;;;2.91;100.00;101298.38;4958632;28;20030;-63
2022/11/14 02:28:48;;;;;;;8.40;7.50;;;;;;;2.85;100.00;101296.28;4951783;28;20031;-64
2022/11/14 02:31:14;;;;;;;8.33;7.20;;;;;;;2.78;100.00;101292.41;4953216;28;20035;-63
2022/11/14 02:33:40;;;;;;;9.93;7.67;;;;;;;2.72;100.00;101290.28;4970655;28;20038;-63
2022/11/14 02:36:05;;;;;;;8.47;7.57;;;;;;;2.68;100.00;101292.53;4956068;28;20042;-64
2022/11/14 02:38:31;;;;;;;9.03;8.23;;;;;;;2.64;100.00;101283.75;4960344;28;20061;-63
2022/11/14 02:40:58;;;;;;;9.43;8.43;;;;;;;2.62;100.00;101292.97;4959622;28;20030;-64
2022/11/14 02:43:23;;;;;;;10.70;7.83;;;;;;;2.58;100.00;101294.41;4973627;28;20098;-63
2022/11/14 02:45:49;;;;;;;8.57;7.73;;;;;;;2.55;100.00;101296.78;4951135;28;20031;-63
2022/11/14 02:48:14;;;;;;;8.10;7.27;;;;;;;2.51;100.00;101294.75;4951192;28;20031;-64
2022/11/14 02:50:39;;;;;;;8.77;7.37;;;;;;;2.47;100.00;101285.06;4953439;28;20033;-64
2022/11/14 02:53:04;;;;;;;8.83;7.93;;;;;;;2.42;100.00;101284.75;4951544;28;20035;-63
2022/11/14 02:55:30;;;;;;;9.07;8.17;;;;;;;2.39;100.00;101275.16;4951188;28;20035;-63
2022/11/14 02:57:55;;;;;;;8.20;7.40;;;;;;;2.36;100.00;101274.97;4951765;28;20463;-63
2022/11/14 03:00:20;;;;;;;9.33;8.30;;;;;;;2.32;100.00;101270.38;4950138;28;20472;-64
2022/11/14 03:02:46;;;;;;;10.63;7.70;;;;;;;2.30;100.00;101268.50;4950249;28;20023;-64
2022/11/14 03:05:11;;;;;;;8.47;7.57;;;;;;;2.26;100.00;101262.28;4958184;28;20101;-63
2022/11/14 03:07:36;;;;;;;9.40;7.87;;;;;;;2.21;100.00;101266.19;4950827;28;20035;-64
2022/11/14 03:10:02;;;;;;;8.57;7.73;;;;;;;2.18;100.00;101258.28;4975374;28;20381;-64
2022/11/14 03:12:28;;;;;;;9.23;8.17;;;;;;;2.14;100.00;101263.16;4951182;28;20459;-63
2022/11/14 03:14:53;;;;;;;9.17;8.17;;;;;;;2.10;100.00;101261.19;4951403;28;20158;-63
2022/11/14 03:17:18;;;;;;;8.93;8.03;;;;;;;2.06;100.00;101253.16;4951493;28;20062;-64
2022/11/14 03:19:44;;;;;;;7.93;7.13;;;;;;;2.01;100.00;101255.38;4957134;28;20051;-63
2022/11/14 03:22:09;;;;;;;8.67;7.70;;;;;;;1.97;100.00;101256.81;4950273;28;20037;-63
2022/11/14 03:24:34;;;;;;;9.03;7.87;;;;;;;1.95;100.00;101254.91;4950572;28;20031;-64
2022/11/14 03:26:59;;;;;;;10.57;8.53;;;;;;;1.90;100.00;101250.38;4958958;28;20526;-63
2022/11/14 03:29:25;;;;;;;8.63;7.70;;;;;;;1.86;100.00;101256.03;4950705;28;20031;-64
2022/11/14 03:31:50;;;;;;;8.23;7.43;;;;;;;1.82;100.00;101259.13;4954130;28;20029;-63
2022/11/14 03:34:15;;;;;;;8.20;7.40;;;;;;;1.78;100.00;101263.09;4956894;28;20471;-63
2022/11/14 03:36:40;;;;;;;9.17;7.60;;;;;;;1.74;100.00;101257.66;4952189;28;20030;-63
2022/11/14 03:39:06;;;;;;;8.30;7.50;;;;;;;1.70;100.00;101255.66;4950176;28;20023;-63
2022/11/14 03:41:31;;;;;;;9.17;7.90;;;;;;;1.67;100.00;101257.19;4949830;28;20098;-63
2022/11/14 03:43:57;;;;;;;8.33;7.53;;;;;;;1.61;100.00;101249.09;4949552;28;20042;-64
2022/11/14 03:46:23;;;;;;;8.93;8.03;;;;;;;1.59;100.00;101255.72;4949663;28;20073;-64
2022/11/14 03:48:48;;;;;;;8.83;7.73;;;;;;;1.55;100.00;101249.50;4950203;28;20046;-64
2022/11/14 03:51:13;;;;;;;8.90;7.43;;;;;;;1.51;100.00;101254.28;4949835;28;20082;-64
2022/11/14 03:53:39;;;;;;;8.80;7.90;;;;;;;1.50;100.00;101244.81;4951916;28;20055;-63
2022/11/14 03:56:04;;;;;;;9.40;7.80;;;;;;;1.49;100.00;101243.03;4960811;28;20038;-63
2022/11/14 03:58:29;;;;;;;8.23;7.33;;;;;;;1.46;100.00;101238.59;4949487;28;20039;-63
2022/11/14 04:00:55;;;;;;;9.73;8.23;;;;;;;1.44;100.00;101251.25;4950389;28;20030;-63
2022/11/14 04:03:21;;;;;;;8.60;7.53;;;;;;;1.44;100.00;101240.13;4949065;28;20034;-63
2022/11/14 04:05:47;;;;;;;9.87;7.60;;;;;;;1.39;100.00;101227.03;4949565;28;20033;-63
2022/11/14 04:08:13;;;;;;;8.30;7.50;;;;;;;1.40;100.00;101231.34;4961738;28;20050;-63
2022/11/14 04:10:40;;;;;;;9.20;8.30;;;;;;;1.37;100.00;101223.44;4950450;28;20085;-64
2022/11/14 04:13:05;;;;;;;9.03;7.63;;;;;;;1.38;100.00;101220.16;4955909;28;20049;-64
2022/11/14 04:15:31;;;;;;;9.67;8.10;;;;;;;1.35;100.00;101219.88;4957390;28;20034;-64
2022/11/14 04:17:56;;;;;;;8.90;8.00;;;;;;;1.36;100.00;101215.69;4957081;28;20067;-64
2022/11/14 04:20:21;;;;;;;9.50;8.30;;;;;;;1.33;100.00;101211.25;4949615;28;20478;-64
2022/11/14 04:22:46;;;;;;;9.43;8.43;;;;;;;1.31;100.00;101207.69;4949158;28;20031;-63
2022/11/14 04:25:12;;;;;;;10.33;7.53;;;;;;;1.30;100.00;101211.00;4949496;28;20099;-63
2022/11/14 04:27:37;;;;;;;10.17;8.57;;;;;;;1.27;100.00;101201.44;4949063;28;20097;-64
2022/11/14 04:30:03;;;;;;;10.17;8.43;;;;;;;1.26;100.00;101203.91;4949068;28;20074;-63
2022/11/14 04:32:29;;;;;;;11.60;8.17;;;;;;;1.23;100.00;101203.63;4955423;28;20077;-64
2022/11/14 04:34:54;;;;;;;9.57;8.47;;;;;;;1.20;100.00;101204.31;4949202;28;20467;-63
2022/11/14 04:37:19;;;;;;;8.90;8.00;;;;;;;1.18;100.00;101201.66;4961415;28;20033;-64
2022/11/14 04:39:45;;;;;;;10.10;8.30;;;;;;;1.15;100.00;101201.38;4950252;28;20027;-64
2022/11/14 04:42:10;;;;;;;8.67;7.73;;;;;;;1.12;100.00;101200.25;4948878;28;20019;-63
2022/11/14 04:44:35;;;;;;;9.10;7.87;;;;;;;1.10;100.00;101201.84;4974475;28;20063;-63
2022/11/14 04:47:00;;;;;;;8.57;7.67;;;;;;;1.07;100.00;101194.81;4969937;28;20058;-64
2022/11/14 04:49:26;;;;;;;8.77;7.97;;;;;;;1.07;100.00;101202.47;4958388;28;20035;-64
2022/11/14 04:51:51;;;;;;;8.63;7.73;;;;;;;1.05;100.00;101201.47;4949007;28;20471;-64
2022/11/14 04:54:16;;;;;;;9.27;8.30;;;;;;;1.05;100.00;101194.72;4949708;28;20031;-63
2022/11/14 04:56:41;;;;;;;8.50;7.67;;;;;;;1.04;100.00;101199.69;4949081;28;20494;-63
2022/11/14 04:59:07;;;;;;;9.40;8.40;;;;;;;1.03;100.00;101197.91;4960610;28;20070;-64
2022/11/14 05:01:32;;;;;;;10.03;8.97;;;;;;;1.02;100.00;101196.13;4957703;28;20030;-64
2022/11/14 05:03:57;;;;;;;12.83;10.17;;;;;;;1.01;100.00;101199.47;4952825;28;20398;-63
2022/11/14 05:06:23;;;;;;;13.40;10.53;;;;;;;0.99;100.00;101189.13;4948902;28;20038;-64
2022/11/14 05:08:48;;;;;;;12.47;9.73;;;;;;;1.00;100.00;101192.56;4948397;28;20023;-63
2022/11/14 05:11:15;;;;;;;12.40;9.50;;;;;;;0.99;100.00;101184.00;4948715;28;20023;-63
2022/11/14 05:13:41;;;;;;;10.10;9.00;;;;;;;0.97;100.00;101182.13;4948749;28;20281;-63
2022/11/14 05:16:06;;;;;;;9.70;8.70;;;;;;;0.97;100.00;101174.47;4949794;28;20039;-63
2022/11/14 05:18:32;;;;;;;9.70;8.30;;;;;;;0.93;100.00;101179.34;4955911;28;20492;-64
2022/11/14 05:20:59;;;;;;;9.37;8.13;;;;;;;0.92;100.00;101172.44;4953701;28;20031;-64
2022/11/14 05:23:24;;;;;;;10.00;8.73;;;;;;;0.90;100.00;101179.09;4948474;28;20062;-64
2022/11/14 05:25:58;;;;;;;11.77;9.00;;;;;;;0.88;100.00;101180.63;4951006;28;20066;-63
2022/11/14 05:28:24;;;;;;;12.50;8.77;;;;;;;0.87;100.00;101168.66;4952631;28;20023;-63
2022/11/14 05:30:49;;;;;;;10.17;8.43;;;;;;;0.87;100.00;101166.09;4952693;28;20533;-64
2022/11/14 05:33:14;;;;;;;9.87;7.63;;;;;;;0.87;100.00;101171.22;4952270;28;20023;-63
2022/11/14 05:35:39;;;;;;;9.43;8.40;;;;;;;0.86;100.00;101161.78;4952278;28;20230;-63
2022/11/14 05:38:05;;;;;;;10.07;8.67;;;;;;;0.87;100.00;101162.66;4958445;28;20027;-63
2022/11/14 05:40:30;;;;;;;11.30;9.77;;;;;;;0.87;100.00;101162.66;4951699;28;20027;-63
2022/11/14 05:42:55;;;;;;;10.17;9.10;;;;;;;0.87;100.00;101160.09;4952604;28;20023;-63
2022/11/14 05:45:20;;;;;;;10.77;9.10;;;;;;;0.85;100.00;101160.00;4956271;28;20030;-63
2022/11/14 05:47:46;;;;;;;11.10;9.60;;;;;;;0.88;100.00;101155.09;4951492;28;20137;-63
2022/11/14 05:50:11;;;;;;;11.60;9.43;;;;;;;0.87;100.00;101158.44;4951223;28;20211;-63
2022/11/14 05:52:37;;;;;;;12.17;9.57;;;;;;;0.88;100.00;101151.69;4952154;28;20065;-64
2022/11/14 05:55:03;;;;;;;11.17;10.07;;;;;;;0.87;100.00;101143.13;4950717;28;20519;-63
2022/11/14 05:57:29;;;;;;;11.83;9.37;;;;;;;0.85;100.00;101143.81;4966469;28;20030;-63
2022/11/14 05:59:56;;;;;;;10.63;9.07;;;;;;;0.82;100.00;101147.91;4960695;28;20467;-63
2022/11/14 06:02:21;;;;;;;11.07;9.40;;;;;;;0.82;100.00;101147.00;4960266;28;20070;-63
2022/11/14 06:04:46;;;;;;;9.40;8.50;;;;;;;0.82;100.00;101147.00;4957001;28;20039;-63
2022/11/14 06:07:12;;;;;;;11.93;8.80;;;;;;;0.82;100.00;101147.00;4955829;28;20081;-63
2022/11/14 06:09:37;;;;;;;9.77;8.53;;;;;;;0.83;100.00;101143.66;4960666;28;20035;-63
2022/11/14 06:12:05;;;;;;;9.83;8.50;;;;;;;0.83;100.00;101146.22;4956913;28;20026;-63
2022/11/14 06:14:30;;;;;;;10.60;8.33;;;;;;;0.79;100.00;101149.31;4959726;28;20031;-64
2022/11/14 06:16:55;;;;;;;9.43;8.47;;;;;;;0.78;100.00;101162.84;4954028;28;20031;-64
2022/11/14 06:19:20;;;;;;;9.30;8.30;;;;;;;0.75;100.00;101160.06;4951217;28;20443;-64
2022/11/14 06:21:46;;;;;;;9.80;8.33;;;;;;;0.74;100.00;101155.75;4957982;28;20026;-63
2022/11/14 06:24:11;;;;;;;10.17;8.20;;;;;;;0.72;100.00;101163.25;4951921;28;20065;-63
2022/11/14 06:26:36;;;;;;;8.80;7.80;;;;;;;0.70;100.00;101165.69;4957439;28;20018;-63
2022/11/14 06:29:01;;;;;;;10.00;8.17;;;;;;;0.65;100.00;101151.69;4954145;28;20062;-64
2022/11/14 06:31:27;;;;;;;10.47;8.53;;;;;;;0.63;100.00;101160.00;4951326;28;20031;-63
2022/11/14 06:33:53;;;;;;;10.13;8.20;;;;;;;0.59;100.00;101156.34;4951258;28;20023;-63
2022/11/14 06:36:18;;;;;;;9.07;7.83;;;;;;;0.56;100.00;101153.53;4951094;28;20027;-63
2022/11/14 06:38:44;;;;;;;10.30;9.20;;;;;;;0.54;100.00;101152.53;4949838;28;20031;-63
2022/11/14 06:41:15;;;;;;;11.40;8.80;;;;;;;0.51;100.00;101153.16;4949424;28;20019;-63
2022/11/14 06:43:45;;;;;;;10.70;8.98;;;;;;;0.51;100.00;101158.28;4949627;28;20099;-63
2022/11/14 06:46:14;;;;;;;10.93;8.90;;;;;;;0.47;100.00;101153.69;4949294;28;20439;-64
2022/11/14 06:48:40;;;;;;;9.73;8.57;;;;;;;0.46;100.00;101154.47;4949515;28;20049;-63
2022/11/14 06:51:06;;;;;;;9.53;8.20;;;;;;;0.40;100.00;101152.34;4948926;28;20031;-64
2022/11/14 06:53:33;;;;;;;11.97;9.80;;;;;;;0.39;100.00;101157.31;4950157;28;20490;-64
2022/11/14 06:56:07;;;;;;;10.10;9.10;;;;;;;0.37;100.00;101163.94;4950626;28;20031;-64
2022/11/14 06:58:38;;;;;;;12.00;10.03;;;;;;;0.37;100.00;101159.75;4951965;28;20037;-64
2022/11/14 07:01:14;;;;;;;11.00;9.38;;;;;;;0.37;100.00;101169.94;4955767;28;20019;-64
2022/11/14 07:03:40;;;;;;;11.20;9.47;;;;;;;0.37;100.00;101159.75;4964854;28;20018;-63
2022/11/14 07:06:06;;;;;;;12.70;9.77;;;;;;;0.38;100.00;101166.63;4951960;28;20023;-64
2022/11/14 07:08:32;;;;;;;11.60;9.17;;;;;;;0.36;100.00;101170.69;4953605;28;20027;-64
2022/11/14 07:11:02;;;;;;;11.30;9.27;;;;;;;0.36;100.00;101175.81;4954768;28;20034;-65
2022/11/14 07:13:28;;;;;;;11.38;9.43;;;;;;;0.36;100.00;101173.25;4952989;28;20059;-64
2022/11/14 07:15:54;;;;;;;9.60;8.33;;;;;;;0.35;100.00;101171.47;4953239;28;20065;-64
2022/11/14 07:18:20;;;;;;;8.93;7.97;;;;;;;0.35;100.00;101171.47;4954426;28;20542;-64
2022/11/14 07:20:45;;;;;;;12.67;9.47;;;;;;;0.38;100.00;101170.84;4952293;28;20082;-64
2022/11/14 07:23:11;;;;;;;18.00;14.17;;;;;;;0.41;100.00;101173.63;4951689;28;20051;-64
2022/11/14 07:25:36;;;;;;;17.07;12.53;;;;;;;0.44;100.00;101177.31;4953119;28;20023;-64
2022/11/14 07:28:02;;;;;;;10.60;9.53;;;;;;;0.52;100.00;101169.38;4948715;28;20031;-64
2022/11/14 07:30:27;;;;;;;12.77;8.47;;;;;;;0.58;100.00;101164.75;4951713;28;20023;-64
2022/11/14 07:32:59;;;;;;;11.63;9.23;;;;;;;0.66;100.00;101168.78;4949683;28;20085;-64
2022/11/14 07:35:24;;;;;;;9.83;8.13;;;;;;;0.64;100.00;101165.22;4952773;28;20031;-64
2022/11/14 07:37:50;;;;;;;11.17;9.40;;;;;;;0.61;100.00;101172.66;4950717;28;20034;-64
2022/11/14 07:40:16;;;;;;;11.17;10.00;;;;;;;0.62;100.00;101161.66;4953622;28;20093;-64
2022/11/14 07:42:41;;;;;;;12.80;10.13;;;;;;;0.64;100.00;101149.91;4952107;28;20403;-65
2022/11/14 07:45:08;;;;;;;11.83;9.57;;;;;;;0.61;100.00;101153.91;4955440;28;20038;-64
2022/11/14 07:47:33;;;;;;;12.67;10.57;;;;;;;0.61;100.00;101146.25;4953703;28;20049;-64
2022/11/14 07:49:58;;;;;;;11.57;10.37;;;;;;;0.61;100.00;101161.56;4950627;28;20023;-64
2022/11/14 07:52:24;;;;;;;12.57;10.90;;;;;;;0.62;100.00;101159.13;4951577;28;20031;-65
2022/11/14 07:54:49;;;;;;;13.13;11.40;;;;;;;0.62;100.00;101148.91;4953345;28;20030;-64
2022/11/14 07:57:14;;;;;;;14.50;13.00;;;;;;;0.65;100.00;101156.78;4951370;28;20487;-64
2022/11/14 07:59:40;;;;;;;12.93;11.60;;;;;;;0.65;100.00;101144.03;4956428;28;20030;-64
2022/11/14 08:02:05;;;;;;;12.00;10.80;;;;;;;0.69;100.00;101158.81;4954358;28;20491;-64
2022/11/14 08:04:30;;;;;;;13.27;11.47;;;;;;;0.73;100.00;101149.75;4951014;28;20155;-64
2022/11/14 08:06:56;;;;;;;12.93;11.17;;;;;;;0.74;100.00;101148.09;4951449;28;20022;-65
2022/11/14 08:09:22;;;;;;;12.93;11.07;;;;;;;0.76;100.00;101146.50;4950740;28;20028;-64
2022/11/14 08:11:47;;;;;;;17.10;11.57;;;;;;;0.81;100.00;101137.59;4951816;28;20023;-64
2022/11/14 08:14:13;;;;;;;16.47;12.90;;;;;;;0.88;100.00;101128.72;4950987;28;20110;-64
2022/11/14 08:16:38;;;;;;;19.87;15.53;;;;;;;1.02;100.00;101129.75;4951522;28;20031;-64
2022/11/14 08:19:04;;;;;;;17.07;13.83;;;;;;;1.17;100.00;101122.38;4961661;28;20034;-64
2022/11/14 08:21:29;;;;;;;15.37;11.80;;;;;;;1.26;100.00;101122.19;4956378;28;20406;-64
2022/11/14 08:23:54;;;;;;;18.17;11.83;;;;;;;1.35;100.00;101125.38;4948581;28;20078;-64
2022/11/14 08:26:20;;;;;;;15.90;11.50;;;;;;;1.44;100.00;101126.06;4953737;28;20020;-64
2022/11/14 08:28:45;;;;;;;15.13;11.50;;;;;;;1.52;100.00;101133.41;4948854;28;20027;-64
2022/11/14 08:31:12;;;;;;;14.40;11.60;;;;;;;1.59;100.00;101127.97;4953165;28;20117;-64
2022/11/14 08:33:38;;;;;;;13.63;11.03;;;;;;;1.63;100.00;101122.34;4951666;28;20030;-64
2022/11/14 08:36:05;;;;;;;13.70;10.60;;;;;;;1.69;100.00;101119.34;4951384;28;20734;-64
2022/11/14 08:38:32;;;;;;;10.87;9.50;;;;;;;1.72;100.00;101116.09;4950512;28;20027;-64
2022/11/14 08:41:01;;;;;;;14.70;10.27;;;;;;;1.76;100.00;101111.31;4949939;28;20051;-64
2022/11/14 08:43:27;;;;;;;14.40;11.17;;;;;;;1.81;100.00;101109.09;4948063;28;20053;-65
2022/11/14 08:45:56;;;;;;;13.47;10.97;;;;;;;1.89;100.00;101117.34;4954702;28;20789;-64
2022/11/14 08:48:21;;;;;;;15.43;12.13;;;;;;;1.99;100.00;101111.19;4947544;28;20112;-64
2022/11/14 08:50:46;;;;;;;15.13;11.77;;;;;;;2.04;100.00;101120.97;4948977;28;20028;-64
2022/11/14 08:53:12;;;;;;;14.00;11.93;;;;;;;2.12;100.00;101118.94;4951063;28;20027;-64
2022/11/14 08:55:42;;;;;;;12.57;10.93;;;;;;;2.19;100.00;101107.50;4950026;28;20058;-64
2022/11/14 08:58:08;;;;;;;15.32;11.75;;;;;;;2.27;100.00;101115.69;4951901;28;20082;-65
2022/11/14 09:00:33;;;;;;;12.83;11.23;;;;;;;2.32;100.00;101111.78;4952633;28;20439;-64
2022/11/14 09:02:58;;;;;;;13.60;11.70;;;;;;;2.45;100.00;101105.88;4965432;28;20433;-64
2022/11/14 09:05:24;;;;;;;14.67;12.23;;;;;;;2.53;100.00;101103.84;4953693;28;20034;-64
2022/11/14 09:07:49;;;;;;;13.77;12.17;;;;;;;2.62;100.00;101101.94;4955281;28;20033;-64
2022/11/14 09:10:14;;;;;;;14.10;11.80;;;;;;;2.72;100.00;101100.88;4952287;28;20023;-64
2022/11/14 09:12:40;;;;;;;12.50;11.20;;;;;;;2.83;100.00;101093.94;4955871;28;20027;-65
2022/11/14 09:15:05;;;;;;;14.77;11.73;;;;;;;2.93;100.00;101092.00;4952534;28;20551;-64
2022/11/14 09:17:31;;;;;;;12.03;10.80;;;;;;;3.03;100.00;101086.69;4954114;28;20031;-65
2022/11/14 09:19:56;;;;;;;13.27;11.17;;;;;;;3.11;100.00;101085.53;4953387;28;20455;-65
2022/11/14 09:22:22;;;;;;;12.37;11.07;;;;;;;3.20;100.00;101090.38;4955458;28;20055;-64
2022/11/14 09:24:48;;;;;;;14.30;11.33;;;;;;;3.30;100.00;101088.41;4951778;28;20041;-64
2022/11/14 09:27:13;;;;;;;13.63;11.53;;;;;;;3.42;100.00;101078.97;4956012;28;20025;-64
2022/11/14 09:29:39;;;;;;;13.27;11.97;;;;;;;3.53;100.00;101074.53;4953266;28;20035;-64
2022/11/14 09:32:04;;;;;;;12.50;11.20;;;;;;;3.62;100.00;101081.94;4955883;28;20034;-64
2022/11/14 09:34:29;;;;;;;13.17;11.77;;;;;;;3.70;100.00;101074.75;4952618;28;20257;-64
2022/11/14 09:36:54;;;;;;;12.57;11.27;;;;;;;3.78;100.00;101071.00;4954463;28;20023;-64
2022/11/14 09:39:20;;;;;;;14.47;12.13;;;;;;;3.88;100.00;101071.56;4952319;28;20038;-64
2022/11/14 09:42:19;;;;;;;15.20;12.30;;;;;;;3.94;100.00;101061.72;4952381;28;20494;-64
2022/11/14 09:44:55;;;;;;;15.37;12.83;;;;;;;4.04;100.00;101065.72;4956949;28;20035;-65
2022/11/14 09:47:27;;;;;;;13.50;12.10;;;;;;;4.10;100.00;101072.94;4953600;28;20129;-65
2022/11/14 09:49:58;;;;;;;13.03;11.57;;;;;;;4.15;100.00;101071.53;4959082;28;20589;-64
2022/11/14 09:52:36;;;;;;;13.82;11.70;;;;;;;4.22;100.00;101068.56;4951995;28;20066;-65
2022/11/14 09:55:11;;;;;;;17.47;12.53;;;;;;;4.37;100.00;101078.84;4955855;28;20026;-65
2022/11/14 09:57:37;;;;;;;13.30;11.90;;;;;;;4.44;100.00;101080.13;4952916;28;20042;-64
2022/11/14 10:00:13;;;;;;;16.05;12.40;;;;;;;4.50;100.00;101087.31;4958977;28;20502;-64
2022/11/14 10:02:51;;;;;;;12.83;11.50;;;;;;;4.54;100.00;101079.91;4954492;28;20035;-64
2022/11/14 10:05:35;;;;;;;13.73;11.90;;;;;;;4.60;100.00;101075.94;4951714;28;20031;-64
2022/11/14 10:08:30;;;;;;;13.60;11.82;;;;;;;4.65;100.00;101066.81;4956238;28;20038;-65
2022/11/14 10:11:15;;;;;;;13.95;12.13;;;;;;;4.69;100.00;101081.63;4951069;28;20398;-64
2022/11/14 10:14:05;;;;;;;17.10;12.43;;;;;;;4.73;100.00;101065.59;4957291;28;20031;-64
2022/11/14 10:16:49;;;;;;;16.80;13.83;;;;;;;4.82;100.00;101066.94;4953041;28;20467;-64
2022/11/14 10:19:40;;;;;;;13.75;11.80;;;;;;;4.90;100.00;101070.84;4959196;28;20034;-64
2022/11/14 10:22:25;;;;;;;;;;;;;;;4.92;100.00;101070.16;4954820;28;20031;-64
2022/11/14 10:25:14;;;;;;;14.38;12.93;;;;;;;4.99;100.00;101065.34;4965389;28;19960;-65
2022/11/14 10:27:55;;;;;;;14.35;12.73;;;;;;;5.05;100.00;101068.31;4957469;28;20035;-65
2022/11/14 10:30:21;;;;;;;15.77;13.13;;;;;;;5.12;100.00;101061.81;4951598;28;20039;-65
2022/11/14 10:33:08;;;;;;;15.45;13.55;;;;;;;5.21;100.00;101067.50;4953533;28;20027;-65
2022/11/14 10:35:39;;;;;;;17.75;14.25;;;;;;;5.28;100.00;101064.50;4954548;28;20031;-64
2022/11/14 10:38:37;;;;;;;15.23;13.13;;;;;;;5.38;100.00;101065.00;4951359;28;20094;-64
2022/11/14 10:41:06;;;;;;;16.10;13.00;;;;;;;5.45;100.00;101059.41;4955863;28;20328;-65
2022/11/14 10:43:42;;;;;;;16.00;14.40;;;;;;;5.51;100.00;101052.06;4952951;28;20360;-65
2022/11/14 10:46:16;;;;;;;17.08;13.95;;;;;;;5.60;100.00;101061.06;4956899;28;20371;-65
2022/11/14 10:48:46;;;;;;;15.30;13.70;;;;;;;5.64;100.00;101058.78;4950935;28;20570;-65
2022/11/14 10:51:37;;;;;;;18.52;14.52;;;;;;;5.71;100.00;101049.69;4958037;28;20031;-65
2022/11/14 10:54:14;;;;;;;16.55;13.95;;;;;;;5.79;100.00;101051.81;4952262;28;20030;-65
2022/11/14 10:56:47;;;;;;;16.58;14.30;;;;;;;5.85;100.00;101047.88;4953553;28;20031;-64
2022/11/14 10:59:12;;;;;;;16.60;14.80;;;;;;;5.92;100.00;101046.53;4955490;28;20069;-65
2022/11/14 11:01:40;;;;;;;15.80;13.85;;;;;;;5.96;100.00;101045.91;4950575;28;20051;-65
2022/11/14 11:04:22;;;;;;;18.02;16.17;;;;;;;6.06;100.00;101036.16;4953542;28;20069;-64
2022/11/14 11:06:49;;;;;;;17.23;15.30;;;;;;;6.10;100.00;101035.50;4952726;28;20081;-64
2022/11/14 11:12:18;;;;;;;16.92;15.13;;;;;;;6.22;100.00;101028.41;4955216;28;20124;-65
2022/11/14 11:14:45;;;;;;;16.80;15.07;;;;;;;6.28;100.00;101020.13;4953771;28;20162;-65
2022/11/14 11:17:11;;;;;;;17.27;15.48;;;;;;;6.32;100.00;101018.63;4964906;28;20030;-65
2022/11/14 11:19:38;;;;;;;16.50;14.80;;;;;;;6.36;100.00;101007.69;4953978;28;20027;-66
2022/11/14 11:22:04;;;;;;;17.27;15.25;;;;;;;6.42;100.00;101001.97;4950110;28;20487;-65